East Setauket, NY (11733)

2:32 PM EDT on May 22, 2017 (GMT -0400)
Schooner Cove | | Change Station

Elev 72 ft 40.95 °N, 73.10 °W | Updated 2 minutes ago

Rain
Rain
57.7 °F
Feels Like 57.7 °F
N
0.0
Wind Variable Wind from NNE
Gusts 2.0 mph

Today
High -- | Low -- °F
--% Chance of Precip.
Yesterday
High -- | Low -- °F
Precip. -- in
Pressure 30.07 in
Visibility 1.0 miles
Clouds Overcast 500 ft
Dew Point 54 °F
Humidity 86%
Rainfall 0.20 in
Snow Depth Not available.
5:28 AM 8:10 PM
Waning Crescent, 13% visible
METAR KISP 221756Z 13009KT 1SM R06/P6000FT RA BR OVC005 13/13 A3007 RMK AO2 SFC VIS 2 SLP181 P0007 60020 T01330133 10139 20122 58023
Pressure 30.07 in
Visibility 1.0 miles
Clouds Overcast 500 ft
Dew Point 54 °F
Humidity 86%
Rainfall 0.20 in
Snow Depth Not available.
5:28 AM 8:10 PM
Waning Crescent, 13% visible
METAR KISP 221756Z 13009KT 1SM R06/P6000FT RA BR OVC005 13/13 A3007 RMK AO2 SFC VIS 2 SLP181 P0007 60020 T01330133 10139 20122 58023

Get Severe Weather Alerts

Thanks for signing up!

Be on the lookout for a verification email in your inbox.

You'll start receiving the daily forecast at 8 AM.

×

10-Day Weather Forecast

Almanac

Astronomy

May. 22, 2017 Rise Set
Actual Time
Civil Twilight
Nautical Twilight
Astronomical Twilight
Moon
Length of Visible Light
Length of Day
Tomorrow will be .
, % of the Moon is Illuminated

Today's Extremes

State Highs State Lows

Community

WunderPhotos

Category 6

Welcome to Category 6. This is the collective home for Weather Underground's featured writeups by Dr. Jeff Masters (right), Bob Henson (left), Chris Burt, and other regular contributors.

Nearby

Air Quality

  Air Quality AQ Index Pollutant
Not available.

Snow Depth

Station Depth Elevation

Earthquake Activity

City Distance Mag. Time & Date
Minimum magnitude displayed is 2.5.

Coastal Water Temperatures

Place Temperature

Stations

Nearby Weather Stations

Station Location Temp. Windchill Dew Point Humidity Wind Precip. Elev Updated Type
                   

Watches & Warnings

There are currently no watches in effect.